Time;durP1;ratioP1;P1;durP2;ratioP2;P2;SDS_P1;SDS_P2;PMS_P1;PMS_P2;Temp;Humidity;BMP_temperature;BMP_pressure;BME280_temperature;BME280_humidity;BME280_pressure;Samples;Min_cycle;Max_cycle;Signal;HPM_P1;HPM_P2
2023/08/14 00:01:28;;;;;;;9.80;2.23;;;19.40;99.90;;;20.31;100.00;98194.63;5019932;28;20509;-80
2023/08/14 00:03:59;;;;;;;5.20;2.13;;;19.40;99.90;;;20.29;100.00;98192.25;5018677;28;20458;-80
2023/08/14 00:06:29;;;;;;;11.73;2.00;;;19.30;99.90;;;20.20;100.00;98179.59;5018612;28;20467;-80
2023/08/14 00:08:58;;;;;;;4.97;2.20;;;19.30;99.90;;;20.18;100.00;98179.84;5015859;28;20501;-81
2023/08/14 00:11:28;;;;;;;8.07;3.43;;;19.30;99.90;;;20.15;100.00;98179.53;5017172;28;21050;-80
2023/08/14 00:13:57;;;;;;;4.30;2.37;;;19.20;99.90;;;20.11;100.00;98184.50;5017797;28;20857;-84
2023/08/14 00:16:28;;;;;;;8.03;2.50;;;19.00;99.90;;;20.13;100.00;98181.63;5017617;28;20473;-81
2023/08/14 00:18:58;;;;;;;4.00;2.30;;;19.10;99.90;;;20.15;100.00;98180.31;5019250;28;20459;-80
2023/08/14 00:21:28;;;;;;;10.97;2.07;;;19.10;99.90;;;20.17;100.00;98166.78;5018306;28;20484;-80
2023/08/14 00:23:57;;;;;;;3.20;1.70;;;19.20;99.90;;;20.15;100.00;98184.81;5019357;28;20543;-80
2023/08/14 00:26:28;;;;;;;14.10;2.30;;;19.20;99.90;;;20.04;100.00;98183.88;5021532;28;20458;-80
2023/08/14 00:28:59;;;;;;;9.10;2.23;;;19.00;99.90;;;20.07;100.00;98175.41;5019159;28;20501;-81
2023/08/14 00:31:29;;;;;;;14.00;2.80;;;19.10;99.90;;;20.06;100.00;98179.16;5019920;28;20471;-81
2023/08/14 00:33:59;;;;;;;19.30;2.10;;;19.10;99.90;;;20.02;100.00;98175.38;5018179;28;20597;-80
2023/08/14 00:36:29;;;;;;;5.70;1.93;;;19.00;99.90;;;20.01;100.00;98171.91;5019191;28;20454;-80
2023/08/14 00:38:59;;;;;;;4.67;2.30;;;19.10;99.90;;;20.03;100.00;98172.44;5020917;28;20457;-80
2023/08/14 00:41:31;;;;;;;4.70;2.07;;;19.10;99.90;;;20.06;100.00;98174.63;5019735;28;20549;-81
2023/08/14 00:44:01;;;;;;;4.30;2.30;;;19.00;99.90;;;20.01;100.00;98173.75;5020969;28;20457;-80
2023/08/14 00:46:32;;;;;;;8.53;2.60;;;19.10;99.90;;;19.92;100.00;98169.91;5026561;28;20808;-81
2023/08/14 00:49:02;;;;;;;6.10;1.93;;;19.00;99.90;;;19.86;100.00;98165.56;5025292;28;20506;-80
2023/08/14 00:51:32;;;;;;;3.63;1.80;;;19.00;99.90;;;19.85;100.00;98169.28;5024920;28;20477;-80
2023/08/14 00:54:02;;;;;;;8.30;1.97;;;19.00;99.90;;;19.86;100.00;98181.47;5024804;28;20471;-80
2023/08/14 00:56:34;;;;;;;9.60;2.20;;;19.00;99.90;;;19.88;100.00;98168.78;5023942;28;20469;-81
2023/08/14 00:59:05;;;;;;;4.03;2.10;;;18.90;99.90;;;19.87;100.00;98157.38;5024369;28;20475;-80
2023/08/14 01:01:36;;;;;;;4.70;1.90;;;18.90;99.90;;;19.86;100.00;98160.25;5022940;28;20477;-81
2023/08/14 01:04:08;;;;;;;2.53;1.60;;;18.80;99.90;;;19.82;100.00;98159.16;5022619;28;20469;-81
2023/08/14 01:06:38;;;;;;;5.00;1.90;;;18.70;99.90;;;19.78;100.00;98152.72;5020705;28;20462;-81
2023/08/14 01:09:11;;;;;;;10.57;1.67;;;18.80;99.90;;;19.79;100.00;98143.69;5022014;28;20607;-80
2023/08/14 01:11:58;;;;;;;7.67;2.00;;;18.80;99.90;;;19.69;100.00;98138.22;5021806;28;20466;-80
2023/08/14 01:14:32;;;;;;;9.10;2.20;;;18.90;99.90;;;19.70;100.00;98145.16;5021136;28;21227;-81
2023/08/14 01:17:13;;;;;;;6.10;2.00;;;18.90;99.90;;;19.68;100.00;98134.00;5021014;28;20511;-80
2023/08/14 01:19:45;;;;;;;3.97;2.00;;;18.90;99.90;;;19.59;100.00;98139.69;5019575;28;20458;-80
2023/08/14 01:22:27;;;;;;;9.00;2.27;;;18.80;99.90;;;19.55;100.00;98143.88;5021925;28;20477;-80
2023/08/14 01:25:24;;;;;;;14.03;2.83;;;18.90;99.90;;;19.53;100.00;98140.69;5021252;28;21004;-80
2023/08/14 01:27:55;;;;;;;8.73;2.10;;;18.80;99.90;;;19.53;100.00;98148.63;5022160;28;20471;-80
2023/08/14 01:30:25;;;;;;;6.40;2.03;;;18.70;99.90;;;19.57;100.00;98136.50;5019672;28;20486;-80
2023/08/14 01:32:56;;;;;;;7.30;1.87;;;18.70;99.90;;;19.53;100.00;98137.22;5021726;28;20466;-80
2023/08/14 01:35:43;;;;;;;6.60;2.00;;;18.70;99.90;;;19.53;100.00;98135.38;5019840;28;20459;-80
2023/08/14 01:38:21;;;;;;;5.50;2.30;;;18.60;99.90;;;19.53;100.00;98134.56;5021966;28;20481;-79
2023/08/14 01:41:02;;;;;;;4.27;2.07;;;18.60;99.90;;;19.55;100.00;98138.56;5021885;28;20485;-80
2023/08/14 01:43:37;;;;;;;8.03;2.47;;;18.60;99.90;;;19.51;100.00;98134.78;5023594;28;20976;-81
2023/08/14 01:46:13;;;;;;;7.40;2.33;;;18.60;99.90;;;19.52;100.00;98133.75;5024132;28;20499;-80
2023/08/14 01:48:44;;;;;;;7.00;2.27;;;18.60;99.90;;;19.49;100.00;98128.13;5021621;28;21063;-80
2023/08/14 01:51:16;;;;;;;6.33;2.97;;;18.60;99.90;;;19.47;100.00;98128.34;5020675;28;20458;-80
2023/08/14 01:53:48;;;;;;;6.63;2.03;;;18.60;99.90;;;19.49;100.00;98123.63;5023332;28;20544;-80
2023/08/14 01:56:19;;;;;;;17.40;2.07;;;18.50;99.90;;;19.49;100.00;98123.63;5021742;28;20921;-80
2023/08/14 01:58:49;;;;;;;11.50;2.53;;;18.60;99.90;;;19.51;100.00;98118.88;5022333;28;20824;-80
2023/08/14 02:01:20;;;;;;;5.27;2.20;;;18.50;99.90;;;19.48;100.00;98106.09;5022872;28;20617;-80
2023/08/14 02:03:50;;;;;;;8.53;1.93;;;18.40;99.90;;;19.48;100.00;98103.44;5021285;28;20458;-80
2023/08/14 02:06:19;;;;;;;5.40;1.90;;;18.40;99.90;;;19.48;100.00;98100.78;5019323;28;21000;-80
2023/08/14 02:08:49;;;;;;;8.87;2.00;;;18.50;99.90;;;19.50;100.00;98100.56;5018214;28;21018;-81
2023/08/14 02:11:20;;;;;;;7.63;1.90;;;18.50;99.90;;;19.50;100.00;98096.06;5020623;28;20549;-80
2023/08/14 02:13:51;;;;;;;10.80;2.00;;;18.50;99.90;;;19.50;100.00;98096.06;5021672;28;20463;-81
2023/08/14 02:16:21;;;;;;;7.03;2.20;;;18.50;99.90;;;19.47;100.00;98091.22;5024542;28;20478;-80
2023/08/14 02:18:51;;;;;;;7.83;2.40;;;18.30;99.90;;;19.48;100.00;98105.28;5020994;28;20459;-80
2023/08/14 02:21:21;;;;;;;8.40;2.20;;;18.50;99.90;;;19.46;100.00;98100.25;5021874;28;20927;-80
2023/08/14 02:23:51;;;;;;;4.10;1.93;;;18.50;99.90;;;19.44;100.00;98099.66;5020131;28;20841;-80
2023/08/14 02:26:23;;;;;;;5.57;1.93;;;18.50;99.90;;;19.48;100.00;98094.69;5020318;28;20466;-80
2023/08/14 02:28:53;;;;;;;3.53;1.90;;;18.40;99.90;;;19.48;100.00;98095.47;5021712;28;20458;-80
2023/08/14 02:31:24;;;;;;;6.23;2.13;;;18.50;99.90;;;19.47;100.00;98083.25;5018773;28;20848;-80
2023/08/14 02:33:58;;;;;;;10.20;2.10;;;18.50;99.90;;;19.50;100.00;98084.63;5020823;28;20521;-80
2023/08/14 02:36:28;;;;;;;6.80;1.73;;;18.50;99.90;;;19.46;100.00;98076.38;5023089;28;20454;-80
2023/08/14 02:38:59;;;;;;;2.83;1.63;;;18.50;99.90;;;19.44;100.00;98059.06;5020528;28;20518;-80
2023/08/14 02:41:30;;;;;;;3.27;2.20;;;18.60;99.90;;;19.47;100.00;98062.03;5021163;28;20554;-80
2023/08/14 02:44:00;;;;;;;8.53;2.17;;;18.50;99.90;;;19.42;100.00;98067.28;5019234;28;20470;-80
2023/08/14 02:46:31;;;;;;;4.93;1.90;;;18.60;99.90;;;19.41;100.00;98062.22;5019277;28;20870;-80
2023/08/14 02:49:01;;;;;;;5.53;2.40;;;18.50;99.90;;;19.37;100.00;98063.69;5022419;28;21033;-80
2023/08/14 02:51:32;;;;;;;6.20;2.13;;;18.60;99.90;;;19.43;100.00;98062.78;5018377;28;20462;-80
2023/08/14 02:54:01;;;;;;;3.50;2.07;;;18.50;99.90;;;19.39;100.00;98059.78;5021825;28;20476;-80
2023/08/14 02:56:31;;;;;;;5.90;1.90;;;18.50;99.90;;;19.41;100.00;98060.38;5018938;28;20461;-80
2023/08/14 02:59:01;;;;;;;4.20;1.80;;;18.50;99.90;;;19.36;100.00;98065.56;5021194;28;20467;-80
2023/08/14 03:01:31;;;;;;;5.43;1.57;;;18.40;99.90;;;19.33;100.00;98059.94;5021131;28;20470;-80
2023/08/14 03:04:01;;;;;;;7.17;2.30;;;18.30;99.90;;;19.32;100.00;98058.34;5022837;28;20853;-80
2023/08/14 03:06:31;;;;;;;7.03;2.00;;;18.40;99.90;;;19.30;100.00;98052.50;5020330;28;21106;-80
2023/08/14 03:09:03;;;;;;;4.00;1.97;;;18.40;99.90;;;19.28;100.00;98052.72;5020059;28;20473;-80
2023/08/14 03:11:36;;;;;;;5.60;1.93;;;18.40;99.90;;;19.26;100.00;98054.81;5019145;28;20525;-80
2023/08/14 03:14:05;;;;;;;8.37;2.03;;;18.40;99.90;;;19.26;100.00;98051.34;5021017;28;20520;-80
2023/08/14 03:16:37;;;;;;;9.50;2.90;;;18.30;99.90;;;19.17;100.00;98050.94;5020847;28;20501;-79
2023/08/14 03:19:06;;;;;;;5.57;1.97;;;18.40;99.90;;;19.13;100.00;98038.41;5020730;28;20581;-79
2023/08/14 03:21:36;;;;;;;5.60;2.30;;;18.30;99.90;;;19.13;100.00;98047.16;5019551;28;20481;-79
2023/08/14 03:24:07;;;;;;;22.63;4.10;;;18.30;99.90;;;19.08;100.00;98042.59;5021656;28;20465;-79
2023/08/14 03:26:39;;;;;;;16.70;3.30;;;18.30;99.90;;;19.04;100.00;98045.97;5020791;28;20537;-79
2023/08/14 03:29:14;;;;;;;5.90;2.13;;;18.30;99.90;;;19.01;100.00;98049.91;5020131;28;20524;-79
2023/08/14 03:31:44;;;;;;;7.77;2.33;;;18.30;99.90;;;19.01;100.00;98044.63;5020764;28;20543;-80
2023/08/14 03:34:13;;;;;;;5.60;2.00;;;18.20;99.90;;;19.08;100.00;98047.09;5019781;28;20501;-79
2023/08/14 03:36:42;;;;;;;8.60;2.27;;;18.20;99.90;;;19.03;100.00;98044.34;5021863;28;20461;-79
2023/08/14 03:39:13;;;;;;;4.83;1.90;;;18.30;99.90;;;19.04;100.00;98052.09;5021805;28;20466;-79
2023/08/14 03:41:44;;;;;;;8.60;2.27;;;18.10;99.90;;;19.10;100.00;98045.00;5021616;28;20473;-79
2023/08/14 03:44:14;;;;;;;10.33;2.07;;;18.10;99.90;;;19.12;100.00;98044.78;5021760;28;20900;-79
2023/08/14 03:46:44;;;;;;;10.13;2.13;;;18.20;99.90;;;19.15;100.00;98050.41;5021032;28;20481;-79
2023/08/14 03:49:16;;;;;;;3.37;1.80;;;18.10;99.90;;;19.15;100.00;98045.09;5022558;28;20501;-79
2023/08/14 03:51:46;;;;;;;2.57;1.70;;;18.20;99.90;;;19.10;100.00;98050.31;5018706;28;21004;-79
2023/08/14 03:54:16;;;;;;;4.23;2.07;;;18.20;99.90;;;19.13;100.00;98041.88;5018371;28;20953;-79
2023/08/14 03:56:46;;;;;;;12.33;2.07;;;18.20;99.90;;;19.08;100.00;98041.81;5020747;28;20567;-79
2023/08/14 03:59:15;;;;;;;3.00;2.30;;;18.30;99.90;;;19.12;100.00;98048.22;5020353;28;20494;-79
2023/08/14 04:01:46;;;;;;;4.90;2.30;;;18.20;99.90;;;19.14;100.00;98037.38;5019284;28;20462;-79
2023/08/14 04:04:17;;;;;;;6.00;2.00;;;18.30;99.90;;;19.16;100.00;98045.91;5019306;28;20567;-79
2023/08/14 04:06:47;;;;;;;8.43;2.40;;;18.20;99.90;;;19.13;100.00;98041.88;5020637;28;20458;-79
2023/08/14 04:09:16;;;;;;;18.53;6.40;;;18.30;99.90;;;19.15;100.00;98038.97;5017309;28;20513;-79
2023/08/14 04:11:49;;;;;;;7.23;2.03;;;18.30;99.90;;;19.16;100.00;98036.06;5019516;28;20504;-79
2023/08/14 04:14:18;;;;;;;4.03;2.10;;;18.30;99.90;;;19.18;100.00;98036.66;5018975;28;21026;-79
2023/08/14 04:16:48;;;;;;;7.50;2.40;;;18.30;99.90;;;19.14;100.00;98043.47;5019490;28;20464;-79
2023/08/14 04:19:19;;;;;;;5.07;1.70;;;18.30;99.90;;;19.21;100.00;98045.97;5019228;28;20470;-79
2023/08/14 04:21:49;;;;;;;7.17;2.07;;;18.30;99.90;;;19.22;100.00;98042.28;5024224;28;21011;-79
2023/08/14 04:24:19;;;;;;;8.03;2.50;;;18.20;99.90;;;19.23;100.00;98049.97;5024294;28;20584;-80
2023/08/14 04:26:50;;;;;;;20.80;2.60;;;18.30;99.90;;;19.19;100.00;98053.38;5023547;28;20467;-79
2023/08/14 04:29:20;;;;;;;6.90;2.47;;;18.30;99.90;;;19.19;100.00;98043.56;5023465;28;20476;-79
2023/08/14 04:31:50;;;;;;;3.33;2.03;;;18.30;99.90;;;19.21;100.00;98053.91;5022626;28;20493;-80
2023/08/14 04:34:20;;;;;;;6.17;1.80;;;18.30;99.90;;;19.19;100.00;98059.47;5023649;28;20482;-79
2023/08/14 04:36:52;;;;;;;5.77;2.93;;;18.40;99.90;;;19.14;100.00;98050.63;5024362;28;20967;-79
2023/08/14 04:39:22;;;;;;;5.00;1.80;;;18.40;99.90;;;19.15;100.00;98050.41;5024522;28;20458;-79
2023/08/14 04:41:55;;;;;;;8.60;2.23;;;18.40;99.90;;;19.15;100.00;98039.78;5021644;28;20467;-79
2023/08/14 04:44:26;;;;;;;6.20;2.03;;;18.30;99.90;;;19.17;100.00;98040.34;5023472;28;20497;-79
2023/08/14 04:46:55;;;;;;;7.60;2.77;;;18.30;99.90;;;19.20;100.00;98045.16;5023109;28;20463;-79
2023/08/14 04:49:30;;;;;;;5.40;2.17;;;18.30;99.90;;;19.22;100.00;98045.75;5023107;28;20457;-79
2023/08/14 04:51:59;;;;;;;6.40;2.00;;;18.40;99.90;;;19.21;100.00;98046.78;5020953;28;20487;-79
2023/08/14 04:54:29;;;;;;;4.90;1.67;;;18.40;99.90;;;19.16;100.00;98049.31;5021765;28;20515;-79
2023/08/14 04:57:00;;;;;;;3.30;2.23;;;18.40;99.90;;;19.20;100.00;98045.16;5022960;28;20454;-79
2023/08/14 04:59:30;;;;;;;8.77;2.20;;;18.40;99.90;;;19.25;100.00;98047.91;5023442;28;20469;-79
2023/08/14 05:02:00;;;;;;;6.53;2.03;;;18.40;99.90;;;19.25;100.00;98042.59;5023353;28;20545;-80
2023/08/14 05:04:30;;;;;;;1.97;1.77;;;18.40;99.90;;;19.29;100.00;98048.22;5021939;28;20464;-79
2023/08/14 05:07:01;;;;;;;6.00;2.03;;;18.40;99.90;;;19.30;100.00;98040.00;5020598;28;20477;-79
2023/08/14 05:09:31;;;;;;;3.90;1.90;;;18.50;99.90;;;19.31;100.00;98044.28;5021360;28;20480;-80
2023/08/14 05:12:02;;;;;;;15.23;2.30;;;18.50;99.90;;;19.23;100.00;98042.00;5021661;28;20501;-79
2023/08/14 05:14:31;;;;;;;6.33;1.87;;;18.50;99.90;;;19.27;100.00;98037.03;5022427;28;20533;-79
2023/08/14 05:17:03;;;;;;;12.27;2.43;;;18.50;99.90;;;19.31;100.00;98046.13;5024815;28;20454;-79
2023/08/14 05:19:33;;;;;;;3.70;2.20;;;18.50;99.90;;;19.34;100.00;98042.97;5021788;28;20967;-80
2023/08/14 05:22:03;;;;;;;5.87;2.37;;;18.50;99.90;;;19.39;100.00;98043.06;5022116;28;20470;-80
2023/08/14 05:24:33;;;;;;;8.10;2.40;;;18.40;99.90;;;19.43;100.00;98045.03;5020546;28;20467;-79
2023/08/14 05:27:05;;;;;;;7.10;2.20;;;18.50;99.90;;;19.45;100.00;98047.41;5021242;28;20470;-79
2023/08/14 05:29:35;;;;;;;3.00;1.87;;;18.50;99.90;;;19.43;100.00;98052.97;5019522;28;20557;-79
2023/08/14 05:32:06;;;;;;;7.80;2.77;;;18.60;99.90;;;19.44;100.00;98057.22;5021474;28;20830;-79
2023/08/14 05:34:36;;;;;;;12.57;2.00;;;18.60;99.90;;;19.44;100.00;98056.41;5021599;28;20461;-80
2023/08/14 05:37:06;;;;;;;6.20;2.03;;;18.70;99.90;;;19.45;100.00;98058.03;5023418;28;20492;-79
2023/08/14 05:39:36;;;;;;;9.60;2.23;;;18.70;99.90;;;19.48;100.00;98068.97;5025415;28;20512;-79
2023/08/14 05:42:07;;;;;;;5.27;1.83;;;18.60;99.90;;;19.49;100.00;98057.31;5022009;28;20466;-79
2023/08/14 05:44:37;;;;;;;4.30;2.03;;;18.70;99.90;;;19.52;100.00;98064.78;5022142;28;20465;-79
2023/08/14 05:47:07;;;;;;;4.30;2.23;;;18.70;99.90;;;19.54;100.00;98061.88;5022847;28;20505;-79
2023/08/14 05:49:37;;;;;;;4.00;2.30;;;18.70;99.90;;;19.58;100.00;98063.78;5020776;28;20502;-80
2023/08/14 05:52:08;;;;;;;4.77;1.67;;;18.70;99.90;;;19.59;100.00;98057.44;5021317;28;20856;-80
2023/08/14 05:54:39;;;;;;;27.43;3.43;;;18.70;99.90;;;19.57;100.00;98062.22;5019662;28;20466;-79
2023/08/14 05:57:10;;;;;;;3.43;1.80;;;18.80;99.90;;;19.58;100.00;98066.44;5020279;28;20454;-80
2023/08/14 05:59:40;;;;;;;6.03;2.30;;;18.80;99.90;;;19.66;100.00;98064.44;5022524;28;20474;-80
2023/08/14 06:02:10;;;;;;;5.03;2.10;;;18.80;99.90;;;19.67;100.00;98058.06;5022010;28;20458;-80
2023/08/14 06:04:40;;;;;;;5.70;2.30;;;18.80;99.90;;;19.65;100.00;98046.88;5017102;28;21070;-80
2023/08/14 06:07:10;;;;;;;5.10;1.90;;;18.90;99.90;;;19.70;100.00;98037.16;5022934;28;21019;-80
2023/08/14 06:09:40;;;;;;;7.87;2.53;;;18.90;99.90;;;19.73;100.00;98034.00;5023421;28;20548;-80
2023/08/14 06:12:12;;;;;;;11.90;2.17;;;18.90;99.90;;;19.73;100.00;98030.56;5021613;28;20513;-80
2023/08/14 06:14:41;;;;;;;7.40;2.10;;;19.00;99.90;;;19.75;100.00;98026.59;5020457;28;20493;-80
2023/08/14 06:17:11;;;;;;;14.57;2.60;;;18.90;99.90;;;19.78;100.00;98020.03;5019087;28;20470;-80
2023/08/14 06:19:42;;;;;;;14.87;2.60;;;18.90;99.90;;;19.81;100.00;98020.34;5017612;28;20465;-81
2023/08/14 06:22:13;;;;;;;12.27;4.20;;;18.90;99.90;;;19.85;100.00;98024.09;5018792;28;20883;-80
2023/08/14 06:24:42;;;;;;;13.03;2.60;;;19.00;99.90;;;19.90;100.00;98033.97;5015961;28;20474;-80
2023/08/14 06:27:14;;;;;;;5.10;2.40;;;19.00;99.90;;;19.94;100.00;98027.09;5018830;28;20505;-79
2023/08/14 06:29:44;;;;;;;8.40;2.37;;;19.10;99.90;;;19.98;100.00;98021.06;5020545;28;20460;-80
2023/08/14 06:32:14;;;;;;;9.80;1.97;;;19.10;99.90;;;20.00;100.00;98012.84;5017203;28;20509;-80
2023/08/14 06:34:44;;;;;;;4.33;2.30;;;19.20;99.90;;;20.03;100.00;98010.50;5018032;28;20458;-79
2023/08/14 06:37:15;;;;;;;7.43;2.60;;;19.20;99.90;;;20.06;100.00;98012.66;5018750;28;20470;-79
2023/08/14 06:39:45;;;;;;;4.93;2.30;;;19.30;99.90;;;20.09;100.00;98014.84;5019071;28;21328;-80
2023/08/14 06:42:17;;;;;;;4.80;2.10;;;19.30;99.90;;;20.10;100.00;98012.94;5016506;28;20467;-79
2023/08/14 06:44:48;;;;;;;7.10;1.70;;;19.40;99.90;;;20.17;100.00;98018.06;5017570;28;20487;-80
2023/08/14 06:47:18;;;;;;;5.03;2.30;;;19.40;99.90;;;20.19;100.00;98008.81;5020515;28;20466;-79
2023/08/14 06:49:48;;;;;;;11.93;3.07;;;19.40;99.90;;;20.24;100.00;98008.06;5017416;28;20462;-79
2023/08/14 06:52:21;;;;;;;9.70;2.60;;;19.40;99.90;;;20.23;100.00;98007.28;5015851;28;21162;-79
2023/08/14 06:54:53;;;;;;;12.97;2.10;;;19.50;99.90;;;20.27;100.00;98008.38;5017504;28;20450;-79
2023/08/14 06:57:25;;;;;;;12.97;2.23;;;19.50;99.90;;;20.30;100.00;98013.22;5018335;28;20459;-80
2023/08/14 06:59:55;;;;;;;9.27;2.70;;;19.50;99.90;;;20.33;100.00;98011.91;5018212;28;20467;-84
2023/08/14 07:02:24;;;;;;;12.17;2.47;;;19.50;99.90;;;20.37;100.00;98011.19;5019514;28;20820;-79
2023/08/14 07:04:54;;;;;;;8.53;4.27;;;19.50;99.90;;;20.42;100.00;98007.75;5018694;28;20462;-80
2023/08/14 07:07:23;;;;;;;21.23;2.93;;;19.60;99.90;;;20.41;100.00;98006.94;5018840;28;20533;-85
2023/08/14 07:10:02;;;;;;;22.90;9.30;;;19.60;99.90;;;20.47;100.00;98000.66;5015194;28;20466;-79
2023/08/14 07:12:34;;;;;;;8.67;2.90;;;19.60;99.90;;;20.51;100.00;97987.66;5016634;28;20522;-80
2023/08/14 07:15:08;;;;;;;6.70;2.97;;;19.60;99.90;;;20.55;100.00;97999.38;5017314;28;20491;-79
2023/08/14 07:17:39;;;;;;;7.77;2.00;;;19.70;99.90;;;20.57;100.00;97992.78;5015790;28;20468;-79
2023/08/14 07:20:13;;;;;;;4.37;2.47;;;19.70;99.90;;;20.62;100.00;97989.34;5015671;28;20577;-79
2023/08/14 07:22:42;;;;;;;6.87;2.20;;;19.80;99.90;;;20.67;100.00;97997.38;5019208;28;20458;-79
2023/08/14 07:25:13;;;;;;;8.23;2.50;;;19.80;99.90;;;20.71;100.00;97987.03;5017561;28;20462;-79
2023/08/14 07:27:45;;;;;;;5.43;2.40;;;19.80;99.90;;;20.74;100.00;97997.97;5016893;28;20457;-78
2023/08/14 07:30:14;;;;;;;4.80;2.03;;;19.90;99.90;;;20.78;100.00;97987.63;5017861;28;20458;-79
2023/08/14 07:32:44;;;;;;;4.77;2.53;;;19.90;99.90;;;20.80;100.00;97983.66;5018517;28;20504;-79
2023/08/14 07:35:14;;;;;;;6.93;2.60;;;19.90;99.90;;;20.83;100.00;97990.31;5019075;28;20861;-79
2023/08/14 07:37:46;;;;;;;12.33;3.90;;;20.00;99.90;;;20.88;100.00;98001.00;5018319;28;20489;-85
2023/08/14 07:40:15;;;;;;;17.90;7.10;;;20.00;99.90;;;20.92;100.00;97989.59;5018485;28;20489;-79
2023/08/14 07:42:47;;;;;;;3.90;2.00;;;20.00;99.90;;;20.96;100.00;97996.00;5019738;28;20466;-79
2023/08/14 07:45:17;;;;;;;4.77;1.63;;;20.10;99.90;;;21.03;100.00;98006.44;5037178;28;20465;-79
2023/08/14 07:47:47;;;;;;;4.63;2.13;;;20.20;99.90;;;21.11;100.00;98007.81;5020603;28;20467;-79
2023/08/14 07:50:17;;;;;;;5.37;2.30;;;20.30;99.90;;;21.17;100.00;98002.31;5017519;28;20471;-80
2023/08/14 07:52:47;;;;;;;3.40;1.70;;;20.40;99.90;;;21.22;100.00;98007.66;5020517;28;20499;-80
2023/08/14 07:55:17;;;;;;;3.93;1.97;;;20.50;99.90;;;21.29;100.00;98021.53;5019274;28;20461;-80
2023/08/14 07:57:52;;;;;;;6.60;2.17;;;20.50;99.90;;;21.32;100.00;98026.34;5017251;28;20468;-79
2023/08/14 08:00:21;;;;;;;3.80;1.93;;;20.50;99.90;;;21.37;100.00;98037.03;5017927;28;20964;-80
2023/08/14 08:02:52;;;;;;;6.13;2.10;;;20.60;99.90;;;21.43;100.00;98043.19;5015454;28;20463;-80
2023/08/14 08:05:23;;;;;;;8.93;2.37;;;20.60;99.90;;;21.49;100.00;98044.81;5019861;28;20495;-79
2023/08/14 08:07:51;;;;;;;8.90;1.90;;;20.60;99.90;;;21.53;100.00;98045.91;5019157;28;20474;-80
2023/08/14 08:10:22;;;;;;;4.80;1.90;;;20.70;99.90;;;21.57;100.00;98055.78;5018508;28;20550;-80
2023/08/14 08:12:53;;;;;;;5.67;2.00;;;20.80;99.90;;;21.63;100.00;98056.59;5016622;28;21043;-79
2023/08/14 08:15:25;;;;;;;9.87;2.20;;;20.80;99.90;;;21.68;100.00;98061.16;5020362;28;20572;-79
2023/08/14 08:17:56;;;;;;;7.40;2.27;;;20.80;99.90;;;21.74;100.00;98054.81;5019902;28;20917;-79
2023/08/14 08:20:27;;;;;;;6.23;1.97;;;20.90;99.90;;;21.78;100.00;98061.22;5017683;28;20546;-80
2023/08/14 08:22:57;;;;;;;7.63;1.97;;;20.90;99.90;;;21.84;100.00;98054.84;5015308;28;20462;-80
2023/08/14 08:25:27;;;;;;;4.33;1.90;;;21.00;99.90;;;21.91;100.00;98055.44;5015525;28;20468;-79
2023/08/14 08:27:58;;;;;;;11.23;6.40;;;21.10;99.90;;;21.94;100.00;98054.94;5015493;28;20804;-84
2023/08/14 08:30:27;;;;;;;10.33;3.67;;;21.10;99.90;;;21.97;100.00;98060.53;5013900;28;20474;-79
2023/08/14 08:32:58;;;;;;;14.63;7.60;;;21.20;99.90;;;22.05;100.00;98061.91;5015360;28;20613;-79
2023/08/14 08:35:30;;;;;;;5.17;2.03;;;21.20;99.90;;;22.07;100.00;98054.47;5017287;28;20658;-80
2023/08/14 08:37:59;;;;;;;6.30;2.23;;;21.30;99.90;;;22.10;100.00;98069.94;5017385;28;20468;-80
2023/08/14 08:40:30;;;;;;;3.90;2.20;;;21.30;99.90;;;22.15;100.00;98061.94;5016908;28;20458;-80
2023/08/14 08:43:02;;;;;;;6.63;2.10;;;21.40;99.90;;;22.21;100.00;98068.13;5017439;28;20466;-79
2023/08/14 08:45:35;;;;;;;8.53;2.40;;;21.40;99.90;;;22.26;100.00;98063.59;5018612;28;20486;-80
2023/08/14 08:48:08;;;;;;;5.50;2.07;;;21.40;99.90;;;22.29;100.00;98063.06;5017705;28;20450;-80
2023/08/14 08:50:39;;;;;;;6.50;2.30;;;21.50;99.90;;;22.34;100.00;98064.94;5016474;28;20829;-80
2023/08/14 08:53:09;;;;;;;4.13;1.87;;;21.50;99.90;;;22.34;100.00;98060.44;5015911;28;20547;-80
2023/08/14 08:55:40;;;;;;;6.10;3.13;;;21.50;99.90;;;22.39;100.00;98063.09;5018430;28;20470;-79
2023/08/14 08:58:11;;;;;;;3.30;2.10;;;21.50;99.90;;;22.42;100.00;98062.56;5016526;28;20473;-81
2023/08/14 09:00:43;;;;;;;5.33;1.90;;;21.60;99.90;;;22.43;100.00;98066.84;5017547;28;20520;-81
2023/08/14 09:03:13;;;;;;;4.20;2.30;;;21.60;99.90;;;22.46;100.00;98060.97;5017407;28;20489;-80
2023/08/14 09:05:43;;;;;;;7.53;2.67;;;21.60;99.90;;;22.51;100.00;98049.53;5017098;28;20466;-83
2023/08/14 09:08:14;;;;;;;9.70;3.40;;;21.70;99.90;;;22.53;100.00;98042.88;5022418;28;21053;-80
2023/08/14 09:10:44;;;;;;;6.33;2.50;;;21.70;99.90;;;22.57;100.00;98043.94;5021958;28;20489;-81
2023/08/14 09:13:16;;;;;;;3.87;2.37;;;21.70;99.90;;;22.62;100.00;98047.69;5022912;28;20498;-80
2023/08/14 09:16:01;;;;;;;5.50;1.97;;;21.80;99.90;;;22.64;100.00;98048.22;5022347;28;20523;-80
2023/08/14 09:18:31;;;;;;;4.07;1.97;;;21.80;99.90;;;22.65;100.00;98039.97;5021961;28;20463;-80
2023/08/14 09:21:04;;;;;;;6.43;2.63;;;21.90;99.90;;;22.67;100.00;98045.06;5025206;28;20454;-80
2023/08/14 09:23:34;;;;;;;5.77;2.43;;;21.80;99.90;;;22.69;100.00;98046.41;5023675;28;20461;-80
2023/08/14 09:26:04;;;;;;;16.13;2.03;;;21.90;99.90;;;22.73;100.00;98052.00;5022356;28;21151;-81
2023/08/14 09:28:35;;;;;;;6.80;2.43;;;22.00;99.90;;;22.76;100.00;98051.47;5022350;28;20463;-80
2023/08/14 09:31:08;;;;;;;5.53;2.60;;;22.00;99.90;;;22.79;100.00;98053.63;5020907;28;21149;-80
2023/08/14 09:33:39;;;;;;;65.33;40.80;;;22.00;99.90;;;22.81;100.00;98054.13;5020801;28;20918;-80
2023/08/14 09:36:09;;;;;;;10.70;4.90;;;22.00;99.90;;;22.85;100.00;98060.56;5022228;28;20573;-80
2023/08/14 09:38:39;;;;;;;5.70;2.40;;;22.00;99.90;;;22.90;100.00;98057.91;5021329;28;20885;-80
2023/08/14 09:41:10;;;;;;;7.30;2.23;;;22.00;99.90;;;22.89;100.00;98046.44;5021067;28;20493;-80
2023/08/14 09:43:41;;;;;;;6.83;2.20;;;22.00;99.90;;;22.94;100.00;98045.63;5021265;28;21011;-80
2023/08/14 09:46:12;;;;;;;5.50;2.30;;;22.10;99.90;;;23.00;100.00;98063.25;5022940;28;20458;-80
2023/08/14 09:48:43;;;;;;;6.40;1.90;;;22.10;99.90;;;23.04;100.00;98058.97;5018628;28;20467;-80
2023/08/14 09:51:15;;;;;;;5.00;2.13;;;22.20;99.90;;;23.06;100.00;98054.16;5019407;28;20527;-80
2023/08/14 09:53:49;;;;;;;5.87;1.90;;;22.30;99.90;;;23.10;100.00;98057.91;5019101;28;20485;-80
2023/08/14 09:56:19;;;;;;;2.83;1.97;;;22.30;99.90;;;23.14;100.00;98060.84;5017578;28;20467;-80
2023/08/14 09:58:52;;;;;;;5.57;2.40;;;22.40;99.90;;;23.18;100.00;98060.03;5017166;28;20552;-86
2023/08/14 10:01:23;;;;;;;10.20;6.73;;;22.40;99.90;;;23.19;100.00;98077.63;5020723;28;20497;-80
2023/08/14 10:03:55;;;;;;;3.53;2.37;;;22.40;99.90;;;23.21;100.00;98080.84;5018831;28;20466;-79
2023/08/14 10:06:26;;;;;;;7.17;2.47;;;22.50;99.90;;;23.21;100.00;98090.72;5018132;28;20486;-80
2023/08/14 10:08:58;;;;;;;9.07;5.63;;;22.50;99.90;;;23.15;100.00;98097.13;5018308;28;20462;-85
2023/08/14 10:11:33;;;;;;;5.53;2.70;;;22.30;99.90;;;23.15;100.00;98100.56;5032443;28;20465;-85
2023/08/14 10:14:09;;;;;;;13.53;6.03;;;22.30;99.90;;;23.19;100.00;98104.31;5017808;28;20495;-80
2023/08/14 10:16:40;;;;;;;3.60;2.20;;;22.40;99.90;;;23.18;100.00;98118.75;5017625;28;20512;-80
2023/08/14 10:19:17;;;;;;;4.10;2.30;;;22.40;99.90;;;23.19;100.00;98115.00;5020280;28;21229;-80
2023/08/14 10:21:50;;;;;;;2.77;2.37;;;22.40;99.90;;;23.21;100.00;98131.56;5019269;28;20463;-80
2023/08/14 10:24:23;;;;;;;9.53;2.30;;;22.50;99.90;;;23.17;100.00;98125.16;5020110;28;20474;-80
2023/08/14 10:26:54;;;;;;;4.90;2.33;;;22.50;99.90;;;23.21;100.00;98133.44;5022093;28;20469;-79